sensor_id;sensor_type;location;lat;lon;timestamp;P1;durP1;ratioP1;P2;durP2;ratioP2
10230;SDS011;62604;49.432;8.680;2023-02-12T00:01:09;32.37;;;15.93;;
10230;SDS011;62604;49.432;8.680;2023-02-12T00:03:36;33.00;;;13.77;;
10230;SDS011;62604;49.432;8.680;2023-02-12T00:06:04;23.70;;;12.43;;
10230;SDS011;62604;49.432;8.680;2023-02-12T00:08:31;22.30;;;12.23;;
10230;SDS011;62604;49.432;8.680;2023-02-12T00:11:00;21.43;;;11.23;;
10230;SDS011;62604;49.432;8.680;2023-02-12T00:13:33;22.17;;;10.27;;
10230;SDS011;62604;49.432;8.680;2023-02-12T00:16:02;18.33;;;9.77;;
10230;SDS011;62604;49.432;8.680;2023-02-12T00:18:30;16.53;;;9.80;;
10230;SDS011;62604;49.432;8.680;2023-02-12T00:20:57;16.87;;;8.87;;
10230;SDS011;62604;49.432;8.680;2023-02-12T00:23:25;17.23;;;9.93;;
10230;SDS011;62604;49.432;8.680;2023-02-12T00:25:52;21.43;;;9.37;;
10230;SDS011;62604;49.432;8.680;2023-02-12T00:28:21;14.97;;;8.40;;
10230;SDS011;62604;49.432;8.680;2023-02-12T00:30:47;17.83;;;8.23;;
10230;SDS011;62604;49.432;8.680;2023-02-12T00:33:14;18.57;;;8.47;;
10230;SDS011;62604;49.432;8.680;2023-02-12T00:35:41;13.57;;;8.67;;
10230;SDS011;62604;49.432;8.680;2023-02-12T00:38:08;14.67;;;8.17;;
10230;SDS011;62604;49.432;8.680;2023-02-12T00:40:35;15.30;;;8.43;;
10230;SDS011;62604;49.432;8.680;2023-02-12T00:43:02;18.90;;;9.30;;
10230;SDS011;62604;49.432;8.680;2023-02-12T00:45:31;16.77;;;8.40;;
10230;SDS011;62604;49.432;8.680;2023-02-12T00:47:58;13.90;;;8.00;;
10230;SDS011;62604;49.432;8.680;2023-02-12T00:50:25;16.67;;;8.20;;
10230;SDS011;62604;49.432;8.680;2023-02-12T00:52:52;16.83;;;8.27;;
10230;SDS011;62604;49.432;8.680;2023-02-12T00:55:19;13.03;;;8.50;;
10230;SDS011;62604;49.432;8.680;2023-02-12T00:57:45;17.60;;;8.27;;
10230;SDS011;62604;49.432;8.680;2023-02-12T01:00:13;16.50;;;8.90;;
10230;SDS011;62604;49.432;8.680;2023-02-12T01:02:42;15.97;;;8.07;;
10230;SDS011;62604;49.432;8.680;2023-02-12T01:05:09;18.63;;;8.70;;
10230;SDS011;62604;49.432;8.680;2023-02-12T01:07:36;15.33;;;7.97;;
10230;SDS011;62604;49.432;8.680;2023-02-12T01:10:05;13.93;;;8.00;;
10230;SDS011;62604;49.432;8.680;2023-02-12T01:12:33;15.60;;;8.27;;
10230;SDS011;62604;49.432;8.680;2023-02-12T01:15:00;14.13;;;8.47;;
10230;SDS011;62604;49.432;8.680;2023-02-12T01:17:27;14.00;;;8.57;;
10230;SDS011;62604;49.432;8.680;2023-02-12T01:19:57;16.53;;;8.53;;
10230;SDS011;62604;49.432;8.680;2023-02-12T01:22:24;17.63;;;8.60;;
10230;SDS011;62604;49.432;8.680;2023-02-12T01:24:51;16.50;;;8.10;;
10230;SDS011;62604;49.432;8.680;2023-02-12T01:27:18;16.17;;;8.63;;
10230;SDS011;62604;49.432;8.680;2023-02-12T01:29:45;18.40;;;9.43;;
10230;SDS011;62604;49.432;8.680;2023-02-12T01:32:12;14.63;;;8.57;;
10230;SDS011;62604;49.432;8.680;2023-02-12T01:34:39;16.90;;;9.23;;
10230;SDS011;62604;49.432;8.680;2023-02-12T01:37:07;18.27;;;8.03;;
10230;SDS011;62604;49.432;8.680;2023-02-12T01:39:34;12.00;;;8.10;;
10230;SDS011;62604;49.432;8.680;2023-02-12T01:42:01;17.37;;;8.87;;
10230;SDS011;62604;49.432;8.680;2023-02-12T01:44:30;17.70;;;8.43;;
10230;SDS011;62604;49.432;8.680;2023-02-12T01:46:59;14.47;;;8.23;;
10230;SDS011;62604;49.432;8.680;2023-02-12T01:49:28;13.50;;;7.70;;
10230;SDS011;62604;49.432;8.680;2023-02-12T01:52:00;18.57;;;8.20;;
10230;SDS011;62604;49.432;8.680;2023-02-12T01:54:32;16.07;;;8.23;;
10230;SDS011;62604;49.432;8.680;2023-02-12T01:57:01;15.77;;;7.17;;
10230;SDS011;62604;49.432;8.680;2023-02-12T01:59:30;11.20;;;7.70;;
10230;SDS011;62604;49.432;8.680;2023-02-12T02:01:57;16.00;;;8.27;;
10230;SDS011;62604;49.432;8.680;2023-02-12T02:04:26;16.37;;;8.33;;
10230;SDS011;62604;49.432;8.680;2023-02-12T02:06:57;11.90;;;6.83;;
10230;SDS011;62604;49.432;8.680;2023-02-12T02:09:27;16.50;;;8.83;;
10230;SDS011;62604;49.432;8.680;2023-02-12T02:11:57;16.87;;;9.20;;
10230;SDS011;62604;49.432;8.680;2023-02-12T02:14:41;18.63;;;9.23;;
10230;SDS011;62604;49.432;8.680;2023-02-12T02:17:15;14.77;;;9.20;;
10230;SDS011;62604;49.432;8.680;2023-02-12T02:22:59;18.43;;;8.43;;
10230;SDS011;62604;49.432;8.680;2023-02-12T02:25:46;17.23;;;9.77;;
10230;SDS011;62604;49.432;8.680;2023-02-12T02:28:36;16.10;;;8.97;;
10230;SDS011;62604;49.432;8.680;2023-02-12T02:31:23;15.90;;;8.73;;
10230;SDS011;62604;49.432;8.680;2023-02-12T02:33:56;19.07;;;9.73;;
10230;SDS011;62604;49.432;8.680;2023-02-12T02:36:30;18.27;;;10.17;;
10230;SDS011;62604;49.432;8.680;2023-02-12T02:39:02;17.30;;;8.67;;
10230;SDS011;62604;49.432;8.680;2023-02-12T02:41:33;16.17;;;9.33;;
10230;SDS011;62604;49.432;8.680;2023-02-12T02:44:07;15.73;;;9.13;;
10230;SDS011;62604;49.432;8.680;2023-02-12T02:46:40;17.53;;;8.83;;
10230;SDS011;62604;49.432;8.680;2023-02-12T02:49:12;15.43;;;8.60;;
10230;SDS011;62604;49.432;8.680;2023-02-12T02:51:47;13.90;;;8.20;;
10230;SDS011;62604;49.432;8.680;2023-02-12T02:54:18;15.53;;;8.77;;
10230;SDS011;62604;49.432;8.680;2023-02-12T02:56:51;12.03;;;7.77;;
10230;SDS011;62604;49.432;8.680;2023-02-12T02:59:24;15.57;;;8.47;;
10230;SDS011;62604;49.432;8.680;2023-02-12T03:01:57;25.17;;;9.40;;
10230;SDS011;62604;49.432;8.680;2023-02-12T03:04:27;14.23;;;8.93;;
10230;SDS011;62604;49.432;8.680;2023-02-12T03:06:58;19.27;;;8.57;;
10230;SDS011;62604;49.432;8.680;2023-02-12T03:09:30;16.47;;;9.70;;
10230;SDS011;62604;49.432;8.680;2023-02-12T03:12:04;16.80;;;9.97;;
10230;SDS011;62604;49.432;8.680;2023-02-12T03:14:35;14.03;;;8.30;;
10230;SDS011;62604;49.432;8.680;2023-02-12T03:17:08;16.13;;;7.30;;
10230;SDS011;62604;49.432;8.680;2023-02-12T03:19:39;11.53;;;7.37;;
10230;SDS011;62604;49.432;8.680;2023-02-12T03:22:11;18.60;;;9.53;;
10230;SDS011;62604;49.432;8.680;2023-02-12T03:24:42;14.43;;;8.57;;
10230;SDS011;62604;49.432;8.680;2023-02-12T03:27:12;17.20;;;9.30;;
10230;SDS011;62604;49.432;8.680;2023-02-12T03:29:45;17.77;;;8.47;;
10230;SDS011;62604;49.432;8.680;2023-02-12T03:32:17;16.53;;;9.13;;
10230;SDS011;62604;49.432;8.680;2023-02-12T03:34:57;16.77;;;9.27;;
10230;SDS011;62604;49.432;8.680;2023-02-12T03:37:34;16.47;;;9.97;;
10230;SDS011;62604;49.432;8.680;2023-02-12T03:40:06;15.27;;;8.60;;
10230;SDS011;62604;49.432;8.680;2023-02-12T03:42:41;15.37;;;8.77;;
10230;SDS011;62604;49.432;8.680;2023-02-12T03:45:14;15.60;;;9.07;;
10230;SDS011;62604;49.432;8.680;2023-02-12T03:47:48;23.17;;;9.00;;
10230;SDS011;62604;49.432;8.680;2023-02-12T03:50:26;18.43;;;9.47;;
10230;SDS011;62604;49.432;8.680;2023-02-12T03:53:01;15.37;;;9.60;;
10230;SDS011;62604;49.432;8.680;2023-02-12T03:55:29;16.13;;;9.20;;
10230;SDS011;62604;49.432;8.680;2023-02-12T03:57:58;17.67;;;8.70;;
10230;SDS011;62604;49.432;8.680;2023-02-12T04:00:28;18.40;;;9.40;;
10230;SDS011;62604;49.432;8.680;2023-02-12T04:02:57;23.63;;;8.73;;
10230;SDS011;62604;49.432;8.680;2023-02-12T04:05:24;12.43;;;8.63;;
10230;SDS011;62604;49.432;8.680;2023-02-12T04:07:52;14.73;;;8.77;;
10230;SDS011;62604;49.432;8.680;2023-02-12T04:10:24;16.10;;;8.70;;
10230;SDS011;62604;49.432;8.680;2023-02-12T04:12:59;17.30;;;9.67;;
10230;SDS011;62604;49.432;8.680;2023-02-12T04:15:41;18.27;;;8.80;;
10230;SDS011;62604;49.432;8.680;2023-02-12T04:18:18;15.20;;;8.57;;
10230;SDS011;62604;49.432;8.680;2023-02-12T04:20:51;16.30;;;8.00;;
10230;SDS011;62604;49.432;8.680;2023-02-12T04:23:28;20.63;;;10.40;;
10230;SDS011;62604;49.432;8.680;2023-02-12T04:26:10;13.27;;;8.73;;
10230;SDS011;62604;49.432;8.680;2023-02-12T04:28:48;18.17;;;10.10;;
10230;SDS011;62604;49.432;8.680;2023-02-12T04:31:27;14.97;;;9.43;;
10230;SDS011;62604;49.432;8.680;2023-02-12T04:34:02;15.90;;;8.70;;
10230;SDS011;62604;49.432;8.680;2023-02-12T04:36:36;17.27;;;9.50;;
10230;SDS011;62604;49.432;8.680;2023-02-12T04:39:10;15.47;;;9.10;;
10230;SDS011;62604;49.432;8.680;2023-02-12T04:41:43;19.90;;;9.27;;
10230;SDS011;62604;49.432;8.680;2023-02-12T04:44:13;12.37;;;8.00;;
10230;SDS011;62604;49.432;8.680;2023-02-12T04:46:42;19.03;;;9.60;;
10230;SDS011;62604;49.432;8.680;2023-02-12T04:49:11;15.23;;;8.57;;
10230;SDS011;62604;49.432;8.680;2023-02-12T04:51:41;14.53;;;8.00;;
10230;SDS011;62604;49.432;8.680;2023-02-12T04:54:09;17.37;;;8.43;;
10230;SDS011;62604;49.432;8.680;2023-02-12T04:56:36;15.40;;;8.40;;
10230;SDS011;62604;49.432;8.680;2023-02-12T04:59:03;15.37;;;8.83;;
10230;SDS011;62604;49.432;8.680;2023-02-12T05:01:31;15.70;;;8.37;;
10230;SDS011;62604;49.432;8.680;2023-02-12T05:03:59;14.37;;;8.27;;
10230;SDS011;62604;49.432;8.680;2023-02-12T05:06:27;17.10;;;7.97;;
10230;SDS011;62604;49.432;8.680;2023-02-12T05:08:55;15.57;;;8.40;;
10230;SDS011;62604;49.432;8.680;2023-02-12T05:11:22;16.30;;;8.80;;
10230;SDS011;62604;49.432;8.680;2023-02-12T05:13:49;15.87;;;8.27;;
10230;SDS011;62604;49.432;8.680;2023-02-12T05:16:17;15.50;;;8.30;;
10230;SDS011;62604;49.432;8.680;2023-02-12T05:18:44;16.23;;;8.70;;
10230;SDS011;62604;49.432;8.680;2023-02-12T05:21:12;15.40;;;9.00;;
10230;SDS011;62604;49.432;8.680;2023-02-12T05:23:40;17.87;;;8.40;;
10230;SDS011;62604;49.432;8.680;2023-02-12T05:26:10;14.43;;;7.67;;
10230;SDS011;62604;49.432;8.680;2023-02-12T05:28:38;13.13;;;7.50;;
10230;SDS011;62604;49.432;8.680;2023-02-12T05:31:06;18.10;;;8.23;;
10230;SDS011;62604;49.432;8.680;2023-02-12T05:33:34;14.10;;;7.70;;
10230;SDS011;62604;49.432;8.680;2023-02-12T05:36:02;14.97;;;8.33;;
10230;SDS011;62604;49.432;8.680;2023-02-12T05:38:30;14.53;;;7.83;;
10230;SDS011;62604;49.432;8.680;2023-02-12T05:41:01;17.47;;;9.40;;
10230;SDS011;62604;49.432;8.680;2023-02-12T05:43:28;16.63;;;9.30;;
10230;SDS011;62604;49.432;8.680;2023-02-12T05:45:57;19.37;;;8.93;;
10230;SDS011;62604;49.432;8.680;2023-02-12T05:48:24;17.43;;;8.43;;
10230;SDS011;62604;49.432;8.680;2023-02-12T05:50:51;12.50;;;7.10;;
10230;SDS011;62604;49.432;8.680;2023-02-12T05:53:18;15.83;;;8.73;;
10230;SDS011;62604;49.432;8.680;2023-02-12T05:55:45;11.37;;;7.30;;
10230;SDS011;62604;49.432;8.680;2023-02-12T05:58:14;11.43;;;6.90;;
10230;SDS011;62604;49.432;8.680;2023-02-12T06:00:41;17.10;;;8.43;;
10230;SDS011;62604;49.432;8.680;2023-02-12T06:03:08;18.87;;;8.60;;
10230;SDS011;62604;49.432;8.680;2023-02-12T06:05:35;13.40;;;7.63;;
10230;SDS011;62604;49.432;8.680;2023-02-12T06:08:01;15.73;;;8.90;;
10230;SDS011;62604;49.432;8.680;2023-02-12T06:10:29;15.13;;;7.57;;
10230;SDS011;62604;49.432;8.680;2023-02-12T06:12:55;14.30;;;7.33;;
10230;SDS011;62604;49.432;8.680;2023-02-12T06:15:24;15.93;;;7.47;;
10230;SDS011;62604;49.432;8.680;2023-02-12T06:17:51;12.43;;;7.13;;
10230;SDS011;62604;49.432;8.680;2023-02-12T06:20:17;10.80;;;6.57;;
10230;SDS011;62604;49.432;8.680;2023-02-12T06:22:44;14.23;;;7.40;;
10230;SDS011;62604;49.432;8.680;2023-02-12T06:25:11;14.87;;;8.17;;
10230;SDS011;62604;49.432;8.680;2023-02-12T06:27:38;16.03;;;7.57;;
10230;SDS011;62604;49.432;8.680;2023-02-12T06:30:05;14.53;;;6.90;;
10230;SDS011;62604;49.432;8.680;2023-02-12T06:32:34;14.87;;;7.60;;
10230;SDS011;62604;49.432;8.680;2023-02-12T06:35:01;17.77;;;7.40;;
10230;SDS011;62604;49.432;8.680;2023-02-12T06:37:28;18.73;;;8.47;;
10230;SDS011;62604;49.432;8.680;2023-02-12T06:39:56;17.30;;;7.90;;
10230;SDS011;62604;49.432;8.680;2023-02-12T06:42:23;16.93;;;9.67;;
10230;SDS011;62604;49.432;8.680;2023-02-12T06:44:50;17.50;;;8.73;;
10230;SDS011;62604;49.432;8.680;2023-02-12T06:47:17;14.73;;;8.37;;
10230;SDS011;62604;49.432;8.680;2023-02-12T06:49:45;19.70;;;9.07;;
10230;SDS011;62604;49.432;8.680;2023-02-12T06:52:12;19.17;;;8.83;;
10230;SDS011;62604;49.432;8.680;2023-02-12T06:54:39;19.33;;;10.50;;
10230;SDS011;62604;49.432;8.680;2023-02-12T06:57:07;14.70;;;9.73;;
10230;SDS011;62604;49.432;8.680;2023-02-12T06:59:35;18.40;;;10.50;;
10230;SDS011;62604;49.432;8.680;2023-02-12T07:02:02;15.90;;;9.60;;
10230;SDS011;62604;49.432;8.680;2023-02-12T07:04:28;18.03;;;9.47;;
10230;SDS011;62604;49.432;8.680;2023-02-12T07:06:57;15.07;;;8.73;;
10230;SDS011;62604;49.432;8.680;2023-02-12T07:09:24;19.23;;;8.77;;
10230;SDS011;62604;49.432;8.680;2023-02-12T07:11:51;19.47;;;10.00;;
10230;SDS011;62604;49.432;8.680;2023-02-12T07:14:20;17.53;;;8.83;;
10230;SDS011;62604;49.432;8.680;2023-02-12T07:16:47;18.97;;;8.37;;
10230;SDS011;62604;49.432;8.680;2023-02-12T07:19:14;15.47;;;8.30;;
10230;SDS011;62604;49.432;8.680;2023-02-12T07:21:42;21.50;;;8.37;;
10230;SDS011;62604;49.432;8.680;2023-02-12T07:24:10;19.20;;;8.83;;
10230;SDS011;62604;49.432;8.680;2023-02-12T07:26:38;19.53;;;8.63;;
10230;SDS011;62604;49.432;8.680;2023-02-12T07:29:05;18.03;;;8.97;;
10230;SDS011;62604;49.432;8.680;2023-02-12T07:31:32;21.40;;;12.03;;
10230;SDS011;62604;49.432;8.680;2023-02-12T07:33:59;27.97;;;12.67;;
10230;SDS011;62604;49.432;8.680;2023-02-12T07:36:27;21.47;;;10.10;;
10230;SDS011;62604;49.432;8.680;2023-02-12T07:38:55;15.60;;;8.87;;
10230;SDS011;62604;49.432;8.680;2023-02-12T07:41:25;16.60;;;9.47;;
10230;SDS011;62604;49.432;8.680;2023-02-12T07:43:53;18.37;;;9.47;;
10230;SDS011;62604;49.432;8.680;2023-02-12T07:46:24;19.80;;;10.73;;
10230;SDS011;62604;49.432;8.680;2023-02-12T07:48:53;20.07;;;10.10;;
10230;SDS011;62604;49.432;8.680;2023-02-12T07:51:21;17.03;;;9.50;;
10230;SDS011;62604;49.432;8.680;2023-02-12T07:53:49;19.27;;;10.03;;
10230;SDS011;62604;49.432;8.680;2023-02-12T07:56:17;18.17;;;9.87;;
10230;SDS011;62604;49.432;8.680;2023-02-12T07:58:47;15.47;;;9.33;;
10230;SDS011;62604;49.432;8.680;2023-02-12T08:01:16;16.60;;;8.37;;
10230;SDS011;62604;49.432;8.680;2023-02-12T08:03:45;13.43;;;8.57;;
10230;SDS011;62604;49.432;8.680;2023-02-12T08:06:13;14.30;;;8.73;;
10230;SDS011;62604;49.432;8.680;2023-02-12T08:08:43;15.43;;;8.30;;
10230;SDS011;62604;49.432;8.680;2023-02-12T08:11:10;17.63;;;8.87;;
10230;SDS011;62604;49.432;8.680;2023-02-12T08:13:39;16.87;;;9.83;;
10230;SDS011;62604;49.432;8.680;2023-02-12T08:16:09;19.00;;;9.47;;
10230;SDS011;62604;49.432;8.680;2023-02-12T08:18:37;18.47;;;10.13;;
10230;SDS011;62604;49.432;8.680;2023-02-12T08:21:04;15.47;;;9.00;;
10230;SDS011;62604;49.432;8.680;2023-02-12T08:23:33;21.03;;;9.10;;
10230;SDS011;62604;49.432;8.680;2023-02-12T08:26:04;17.20;;;9.17;;
10230;SDS011;62604;49.432;8.680;2023-02-12T08:28:35;16.93;;;9.77;;
10230;SDS011;62604;49.432;8.680;2023-02-12T08:31:04;18.10;;;9.23;;
10230;SDS011;62604;49.432;8.680;2023-02-12T08:33:34;19.10;;;9.83;;
10230;SDS011;62604;49.432;8.680;2023-02-12T08:36:02;15.93;;;9.63;;
10230;SDS011;62604;49.432;8.680;2023-02-12T08:38:31;21.73;;;10.83;;
10230;SDS011;62604;49.432;8.680;2023-02-12T08:41:01;17.17;;;9.90;;
10230;SDS011;62604;49.432;8.680;2023-02-12T08:43:28;18.10;;;9.57;;
10230;SDS011;62604;49.432;8.680;2023-02-12T08:46:00;16.27;;;9.53;;
10230;SDS011;62604;49.432;8.680;2023-02-12T08:48:28;17.13;;;10.00;;
10230;SDS011;62604;49.432;8.680;2023-02-12T08:51:01;15.97;;;9.13;;
10230;SDS011;62604;49.432;8.680;2023-02-12T08:53:29;19.43;;;10.27;;
10230;SDS011;62604;49.432;8.680;2023-02-12T08:55:57;17.30;;;11.10;;
10230;SDS011;62604;49.432;8.680;2023-02-12T08:58:24;20.37;;;10.63;;
10230;SDS011;62604;49.432;8.680;2023-02-12T09:00:51;19.33;;;10.27;;
10230;SDS011;62604;49.432;8.680;2023-02-12T09:03:18;16.67;;;10.27;;
10230;SDS011;62604;49.432;8.680;2023-02-12T09:05:45;18.17;;;9.13;;
10230;SDS011;62604;49.432;8.680;2023-02-12T09:08:15;17.60;;;7.90;;
10230;SDS011;62604;49.432;8.680;2023-02-12T09:10:42;16.53;;;8.93;;
10230;SDS011;62604;49.432;8.680;2023-02-12T09:13:11;19.27;;;8.90;;
10230;SDS011;62604;49.432;8.680;2023-02-12T09:15:40;15.83;;;9.17;;
10230;SDS011;62604;49.432;8.680;2023-02-12T09:18:07;27.37;;;11.40;;
10230;SDS011;62604;49.432;8.680;2023-02-12T09:20:36;25.93;;;13.93;;
10230;SDS011;62604;49.432;8.680;2023-02-12T09:23:04;23.33;;;11.93;;
10230;SDS011;62604;49.432;8.680;2023-02-12T09:25:33;18.47;;;10.47;;
10230;SDS011;62604;49.432;8.680;2023-02-12T09:28:00;18.47;;;10.70;;
10230;SDS011;62604;49.432;8.680;2023-02-12T09:30:27;21.50;;;11.53;;
10230;SDS011;62604;49.432;8.680;2023-02-12T09:32:54;19.90;;;10.07;;
10230;SDS011;62604;49.432;8.680;2023-02-12T09:35:22;18.63;;;10.47;;
10230;SDS011;62604;49.432;8.680;2023-02-12T09:37:49;20.40;;;10.43;;
10230;SDS011;62604;49.432;8.680;2023-02-12T09:40:18;19.37;;;9.33;;
10230;SDS011;62604;49.432;8.680;2023-02-12T09:42:53;21.13;;;9.70;;
10230;SDS011;62604;49.432;8.680;2023-02-12T09:45:32;17.23;;;9.10;;
10230;SDS011;62604;49.432;8.680;2023-02-12T09:48:05;16.30;;;8.87;;
10230;SDS011;62604;49.432;8.680;2023-02-12T09:50:42;24.77;;;10.33;;
10230;SDS011;62604;49.432;8.680;2023-02-12T09:53:13;15.20;;;8.20;;
10230;SDS011;62604;49.432;8.680;2023-02-12T09:55:43;20.80;;;9.90;;
10230;SDS011;62604;49.432;8.680;2023-02-12T09:58:13;18.70;;;10.07;;
10230;SDS011;62604;49.432;8.680;2023-02-12T10:00:43;19.03;;;11.20;;
10230;SDS011;62604;49.432;8.680;2023-02-12T10:03:11;24.33;;;11.23;;
10230;SDS011;62604;49.432;8.680;2023-02-12T10:05:41;22.17;;;10.23;;
10230;SDS011;62604;49.432;8.680;2023-02-12T10:08:26;21.50;;;10.63;;
10230;SDS011;62604;49.432;8.680;2023-02-12T10:11:17;19.77;;;10.47;;
10230;SDS011;62604;49.432;8.680;2023-02-12T10:13:59;18.63;;;10.07;;
10230;SDS011;62604;49.432;8.680;2023-02-12T10:16:39;20.70;;;8.83;;
10230;SDS011;62604;49.432;8.680;2023-02-12T10:19:18;20.20;;;10.07;;
10230;SDS011;62604;49.432;8.680;2023-02-12T10:21:57;17.97;;;9.20;;
10230;SDS011;62604;49.432;8.680;2023-02-12T10:24:33;17.10;;;8.50;;
10230;SDS011;62604;49.432;8.680;2023-02-12T10:27:09;18.07;;;8.57;;
10230;SDS011;62604;49.432;8.680;2023-02-12T10:29:40;15.33;;;8.57;;
10230;SDS011;62604;49.432;8.680;2023-02-12T10:32:11;18.57;;;9.53;;
10230;SDS011;62604;49.432;8.680;2023-02-12T10:34:46;22.63;;;10.33;;
10230;SDS011;62604;49.432;8.680;2023-02-12T10:37:17;17.10;;;9.63;;
10230;SDS011;62604;49.432;8.680;2023-02-12T10:39:52;15.00;;;9.00;;
10230;SDS011;62604;49.432;8.680;2023-02-12T10:42:31;17.00;;;10.40;;
10230;SDS011;62604;49.432;8.680;2023-02-12T10:45:08;18.77;;;9.33;;
10230;SDS011;62604;49.432;8.680;2023-02-12T10:47:39;16.63;;;10.63;;
10230;SDS011;62604;49.432;8.680;2023-02-12T10:50:12;13.90;;;8.17;;
10230;SDS011;62604;49.432;8.680;2023-02-12T10:52:46;14.93;;;7.90;;
10230;SDS011;62604;49.432;8.680;2023-02-12T10:55:22;16.20;;;7.57;;
10230;SDS011;62604;49.432;8.680;2023-02-12T10:57:52;20.70;;;9.83;;
10230;SDS011;62604;49.432;8.680;2023-02-12T11:00:25;11.93;;;7.93;;
10230;SDS011;62604;49.432;8.680;2023-02-12T11:02:59;9.97;;;6.87;;
10230;SDS011;62604;49.432;8.680;2023-02-12T11:05:28;6.80;;;5.53;;
10230;SDS011;62604;49.432;8.680;2023-02-12T11:07:57;8.50;;;6.23;;
10230;SDS011;62604;49.432;8.680;2023-02-12T11:10:26;8.63;;;6.97;;
10230;SDS011;62604;49.432;8.680;2023-02-12T11:12:55;8.40;;;6.30;;
10230;SDS011;62604;49.432;8.680;2023-02-12T11:15:26;10.37;;;4.53;;
10230;SDS011;62604;49.432;8.680;2023-02-12T11:17:56;6.20;;;3.87;;
10230;SDS011;62604;49.432;8.680;2023-02-12T11:20:26;4.90;;;3.43;;
10230;SDS011;62604;49.432;8.680;2023-02-12T11:22:56;5.03;;;3.67;;
10230;SDS011;62604;49.432;8.680;2023-02-12T11:25:25;5.87;;;4.47;;
10230;SDS011;62604;49.432;8.680;2023-02-12T11:27:58;4.20;;;3.80;;
10230;SDS011;62604;49.432;8.680;2023-02-12T11:30:31;5.43;;;3.80;;
10230;SDS011;62604;49.432;8.680;2023-02-12T11:33:14;4.30;;;3.90;;
10230;SDS011;62604;49.432;8.680;2023-02-12T11:35:47;3.87;;;3.57;;
10230;SDS011;62604;49.432;8.680;2023-02-12T11:38:22;5.97;;;3.50;;
10230;SDS011;62604;49.432;8.680;2023-02-12T11:40:52;4.47;;;4.07;;
10230;SDS011;62604;49.432;8.680;2023-02-12T11:43:22;4.47;;;3.67;;
10230;SDS011;62604;49.432;8.680;2023-02-12T11:45:51;3.87;;;3.57;;
10230;SDS011;62604;49.432;8.680;2023-02-12T11:48:21;4.30;;;3.90;;
10230;SDS011;62604;49.432;8.680;2023-02-12T11:50:51;4.33;;;3.93;;
10230;SDS011;62604;49.432;8.680;2023-02-12T11:53:20;4.00;;;3.70;;
10230;SDS011;62604;49.432;8.680;2023-02-12T11:55:54;4.33;;;3.47;;
10230;SDS011;62604;49.432;8.680;2023-02-12T11:58:24;5.67;;;3.73;;
10230;SDS011;62604;49.432;8.680;2023-02-12T12:00:55;3.80;;;3.40;;
10230;SDS011;62604;49.432;8.680;2023-02-12T12:03:28;4.33;;;3.60;;
10230;SDS011;62604;49.432;8.680;2023-02-12T12:06:01;5.30;;;3.90;;
10230;SDS011;62604;49.432;8.680;2023-02-12T12:08:34;4.47;;;4.07;;
10230;SDS011;62604;49.432;8.680;2023-02-12T12:11:06;4.30;;;3.77;;
10230;SDS011;62604;49.432;8.680;2023-02-12T12:13:40;4.03;;;3.73;;
10230;SDS011;62604;49.432;8.680;2023-02-12T12:16:13;5.23;;;3.97;;
10230;SDS011;62604;49.432;8.680;2023-02-12T12:19:05;4.87;;;3.77;;
10230;SDS011;62604;49.432;8.680;2023-02-12T12:21:59;3.93;;;3.53;;
10230;SDS011;62604;49.432;8.680;2023-02-12T12:24:33;3.97;;;3.50;;
10230;SDS011;62604;49.432;8.680;2023-02-12T12:27:07;4.17;;;3.70;;
10230;SDS011;62604;49.432;8.680;2023-02-12T12:30:03;3.70;;;3.40;;
10230;SDS011;62604;49.432;8.680;2023-02-12T12:32:38;3.73;;;3.33;;
10230;SDS011;62604;49.432;8.680;2023-02-12T12:35:08;3.70;;;3.40;;
10230;SDS011;62604;49.432;8.680;2023-02-12T12:37:41;3.67;;;3.33;;
10230;SDS011;62604;49.432;8.680;2023-02-12T12:40:19;5.50;;;3.67;;
10230;SDS011;62604;49.432;8.680;2023-02-12T12:43:05;3.42;;;3.22;;
10230;SDS011;62604;49.432;8.680;2023-02-12T12:45:49;3.47;;;3.20;;
10230;SDS011;62604;49.432;8.680;2023-02-12T12:48:42;3.47;;;3.20;;
10230;SDS011;62604;49.432;8.680;2023-02-12T12:51:27;3.25;;;3.05;;
10230;SDS011;62604;49.432;8.680;2023-02-12T12:54:09;3.70;;;3.40;;
10230;SDS011;62604;49.432;8.680;2023-02-12T12:56:51;3.78;;;3.20;;
10230;SDS011;62604;49.432;8.680;2023-02-12T13:02:45;3.28;;;3.08;;
10230;SDS011;62604;49.432;8.680;2023-02-12T13:08:47;3.33;;;3.03;;
10230;SDS011;62604;49.432;8.680;2023-02-12T13:11:33;3.25;;;3.05;;
10230;SDS011;62604;49.432;8.680;2023-02-12T13:14:10;3.30;;;3.10;;
10230;SDS011;62604;49.432;8.680;2023-02-12T13:16:47;3.53;;;3.22;;
10230;SDS011;62604;49.432;8.680;2023-02-12T13:19:22;3.40;;;3.20;;
10230;SDS011;62604;49.432;8.680;2023-02-12T13:22:07;3.35;;;3.15;;
10230;SDS011;62604;49.432;8.680;2023-02-12T13:24:39;3.30;;;3.10;;
10230;SDS011;62604;49.432;8.680;2023-02-12T13:27:13;3.60;;;3.30;;
10230;SDS011;62604;49.432;8.680;2023-02-12T13:29:43;3.58;;;3.25;;
10230;SDS011;62604;49.432;8.680;2023-02-12T13:32:15;3.50;;;3.30;;
10230;SDS011;62604;49.432;8.680;2023-02-12T13:34:48;4.20;;;3.80;;
10230;SDS011;62604;49.432;8.680;2023-02-12T13:37:18;3.45;;;3.20;;
10230;SDS011;62604;49.432;8.680;2023-02-12T13:39:50;3.72;;;3.42;;
10230;SDS011;62604;49.432;8.680;2023-02-12T13:42:21;3.28;;;2.97;;
10230;SDS011;62604;49.432;8.680;2023-02-12T13:45:01;3.28;;;3.08;;
10230;SDS011;62604;49.432;8.680;2023-02-12T13:47:44;3.10;;;2.90;;
10230;SDS011;62604;49.432;8.680;2023-02-12T13:50:22;3.10;;;2.90;;
10230;SDS011;62604;49.432;8.680;2023-02-12T13:53:02;3.20;;;3.00;;
10230;SDS011;62604;49.432;8.680;2023-02-12T13:55:38;3.00;;;2.80;;
10230;SDS011;62604;49.432;8.680;2023-02-12T14:01:04;3.55;;;3.25;;
10230;SDS011;62604;49.432;8.680;2023-02-12T14:03:32;3.53;;;3.30;;
10230;SDS011;62604;49.432;8.680;2023-02-12T14:06:08;2.80;;;2.60;;
10230;SDS011;62604;49.432;8.680;2023-02-12T14:08:39;3.83;;;2.97;;
10230;SDS011;62604;49.432;8.680;2023-02-12T14:11:08;3.60;;;3.30;;
10230;SDS011;62604;49.432;8.680;2023-02-12T14:13:44;3.23;;;3.00;;
10230;SDS011;62604;49.432;8.680;2023-02-12T14:16:17;3.20;;;3.00;;
10230;SDS011;62604;49.432;8.680;2023-02-12T14:22:05;3.87;;;3.50;;
10230;SDS011;62604;49.432;8.680;2023-02-12T14:24:48;2.37;;;2.17;;
10230;SDS011;62604;49.432;8.680;2023-02-12T14:33:15;3.23;;;2.70;;
10230;SDS011;62604;49.432;8.680;2023-02-12T14:36:11;2.87;;;2.67;;
10230;SDS011;62604;49.432;8.680;2023-02-12T14:41:28;3.40;;;2.30;;
10230;SDS011;62604;49.432;8.680;2023-02-12T14:50:14;3.30;;;2.30;;
10230;SDS011;62604;49.432;8.680;2023-02-12T14:52:48;3.57;;;3.27;;
10230;SDS011;62604;49.432;8.680;2023-02-12T14:55:19;2.70;;;2.50;;
10230;SDS011;62604;49.432;8.680;2023-02-12T14:57:52;2.60;;;1.90;;
10230;SDS011;62604;49.432;8.680;2023-02-12T15:00:25;2.77;;;2.53;;
10230;SDS011;62604;49.432;8.680;2023-02-12T15:02:54;3.33;;;3.03;;
10230;SDS011;62604;49.432;8.680;2023-02-12T15:05:33;2.97;;;2.40;;
10230;SDS011;62604;49.432;8.680;2023-02-12T15:08:06;3.00;;;2.50;;
10230;SDS011;62604;49.432;8.680;2023-02-12T15:10:39;3.37;;;2.63;;
10230;SDS011;62604;49.432;8.680;2023-02-12T15:13:14;2.63;;;2.00;;
10230;SDS011;62604;49.432;8.680;2023-02-12T15:15:50;3.00;;;2.63;;
10230;SDS011;62604;49.432;8.680;2023-02-12T15:18:21;3.17;;;2.87;;
10230;SDS011;62604;49.432;8.680;2023-02-12T15:20:55;5.13;;;3.60;;
10230;SDS011;62604;49.432;8.680;2023-02-12T15:23:33;3.70;;;3.20;;
10230;SDS011;62604;49.432;8.680;2023-02-12T15:26:03;3.60;;;2.43;;
10230;SDS011;62604;49.432;8.680;2023-02-12T15:28:33;3.17;;;2.30;;
10230;SDS011;62604;49.432;8.680;2023-02-12T15:31:02;4.40;;;4.00;;